Time;durP1;ratioP1;P1;durP2;ratioP2;P2;SDS_P1;SDS_P2;PMS_P1;PMS_P2;Temp;Humidity;BMP_temperature;BMP_pressure;BME280_temperature;BME280_humidity;BME280_pressure;Samples;Min_cycle;Max_cycle;Signal;HPM_P1;HPM_P2
2023/09/01 00:00:31;;;;;;;2.55;2.13;;;16.60;99.90;;;;;;4979870;28;20190;-32
2023/09/01 00:03:18;;;;;;;2.75;2.00;;;16.50;99.90;;;;;;4982608;28;20203;-32
2023/09/01 00:05:44;;;;;;;3.58;2.00;;;16.50;99.90;;;;;;4979682;28;20180;-33
2023/09/01 00:08:10;;;;;;;2.28;1.60;;;16.40;99.90;;;;;;4979538;28;20193;-33
2023/09/01 00:10:39;;;;;;;2.75;1.90;;;16.40;99.90;;;;;;4983034;28;20645;-34
2023/09/01 00:13:05;;;;;;;5.75;2.03;;;16.40;99.90;;;;;;4984016;28;20210;-32
2023/09/01 00:15:31;;;;;;;3.20;2.05;;;16.30;99.90;;;;;;4979354;28;20187;-32
2023/09/01 00:17:58;;;;;;;2.88;1.98;;;16.30;99.90;;;;;;4979360;28;20187;-32
2023/09/01 00:20:24;;;;;;;3.08;1.92;;;16.30;99.90;;;;;;4979550;28;20179;-34
2023/09/01 00:22:50;;;;;;;3.45;1.73;;;16.30;99.90;;;;;;4994806;28;20223;-34
2023/09/01 00:25:16;;;;;;;2.50;1.92;;;16.30;99.90;;;;;;4979433;28;20266;-34
2023/09/01 00:27:41;;;;;;;3.83;2.20;;;16.20;99.90;;;;;;4979439;28;20287;-34
2023/09/01 00:30:08;;;;;;;4.43;1.90;;;16.20;99.90;;;;;;4980246;28;20183;-32
2023/09/01 00:32:35;;;;;;;3.22;1.90;;;16.20;99.90;;;;;;4994829;28;20195;-34
2023/09/01 00:35:02;;;;;;;2.35;1.83;;;16.20;99.90;;;;;;4979151;28;20195;-33
2023/09/01 00:37:29;;;;;;;2.58;1.80;;;16.20;99.90;;;;;;4985833;28;20187;-34
2023/09/01 00:39:55;;;;;;;3.00;2.00;;;16.20;99.90;;;;;;4979081;28;20191;-33
2023/09/01 00:42:21;;;;;;;2.80;2.03;;;16.10;99.90;;;;;;4993334;28;20258;-34
2023/09/01 00:44:48;;;;;;;3.85;1.80;;;16.10;99.90;;;;;;4989664;28;20187;-33
2023/09/01 00:47:14;;;;;;;2.90;2.30;;;16.10;99.90;;;;;;4981247;28;20199;-33
2023/09/01 00:49:41;;;;;;;3.72;1.70;;;16.10;99.90;;;;;;4979495;28;20194;-33
2023/09/01 00:52:07;;;;;;;5.38;2.08;;;16.10;99.90;;;;;;4978858;28;20206;-32
2023/09/01 00:54:34;;;;;;;2.95;1.88;;;16.10;99.90;;;;;;4978724;28;20187;-32
2023/09/01 00:57:00;;;;;;;5.35;1.80;;;16.10;99.90;;;;;;4978498;28;20276;-34
2023/09/01 00:59:26;;;;;;;2.53;1.88;;;16.10;99.90;;;;;;4978342;28;20274;-32
2023/09/01 01:01:52;;;;;;;3.15;1.80;;;16.10;99.90;;;;;;4977573;28;20211;-33
2023/09/01 01:04:21;;;;;;;2.53;1.83;;;16.10;99.90;;;;;;4978706;28;20211;-33
2023/09/01 01:07:06;;;;;;;4.65;2.03;;;16.10;99.90;;;;;;4978217;28;20183;-33
2023/09/01 01:10:06;;;;;;;3.85;1.85;;;16.10;99.90;;;;;;4994802;28;20187;-33
2023/09/01 01:12:46;;;;;;;3.42;1.63;;;16.10;99.90;;;;;;4978694;28;20210;-33
2023/09/01 01:15:14;;;;;;;3.22;1.88;;;16.10;99.90;;;;;;4978199;28;20215;-34
2023/09/01 01:17:43;;;;;;;4.72;2.13;;;16.10;99.90;;;;;;4990318;28;20186;-33
2023/09/01 01:20:15;;;;;;;2.20;1.85;;;16.00;99.90;;;;;;4990582;28;20187;-33
2023/09/01 01:22:46;;;;;;;2.90;1.63;;;16.00;99.90;;;;;;4994050;28;20686;-34
2023/09/01 01:25:13;;;;;;;3.40;1.90;;;16.00;99.90;;;;;;5013662;28;20182;-32
2023/09/01 01:27:42;;;;;;;3.53;1.83;;;16.00;99.90;;;;;;4997919;28;20185;-33
2023/09/01 01:30:15;;;;;;;3.30;2.00;;;16.00;99.90;;;;;;4997674;28;20206;-32
2023/09/01 01:32:42;;;;;;;3.83;1.83;;;16.00;99.90;;;;;;4997702;28;20214;-34
2023/09/01 01:35:11;;;;;;;3.17;1.70;;;16.00;99.90;;;;;;4997868;28;20270;-33
2023/09/01 01:37:50;;;;;;;3.53;2.00;;;15.90;99.90;;;;;;5013487;28;20285;-32
2023/09/01 01:40:20;;;;;;;2.63;1.80;;;15.90;99.90;;;;;;4997594;28;20260;-32
2023/09/01 01:42:48;;;;;;;3.70;1.77;;;15.90;99.90;;;;;;4993260;28;20242;-34
2023/09/01 01:45:20;;;;;;;6.78;2.30;;;15.90;99.90;;;;;;4978075;28;20214;-33
2023/09/01 01:47:49;;;;;;;2.37;1.80;;;15.90;99.90;;;;;;4989935;28;20638;-34
2023/09/01 01:50:15;;;;;;;3.95;1.90;;;15.90;99.90;;;;;;4997418;28;20179;-34
2023/09/01 01:52:40;;;;;;;4.13;2.05;;;15.90;99.90;;;;;;4996620;28;20257;-33
2023/09/01 01:55:07;;;;;;;5.60;2.10;;;15.90;99.90;;;;;;4997419;28;20186;-32
2023/09/01 01:57:36;;;;;;;3.05;1.67;;;15.90;99.90;;;;;;5013298;28;20187;-33
2023/09/01 02:00:04;;;;;;;2.25;1.90;;;15.90;99.90;;;;;;4993254;28;20186;-32
2023/09/01 02:02:39;;;;;;;2.65;1.80;;;15.80;99.90;;;;;;5014722;28;20214;-33
2023/09/01 02:05:06;;;;;;;2.93;1.60;;;15.80;99.90;;;;;;4997246;28;20178;-34
2023/09/01 02:07:33;;;;;;;2.70;2.00;;;15.80;99.90;;;;;;4997030;28;20246;-32
2023/09/01 02:10:00;;;;;;;5.70;2.08;;;15.80;99.90;;;;;;4996907;28;20186;-34
2023/09/01 02:12:25;;;;;;;5.65;2.20;;;15.80;99.90;;;;;;4997286;28;20207;-34
2023/09/01 02:14:51;;;;;;;3.63;2.20;;;15.90;99.90;;;;;;4996703;28;20182;-33
2023/09/01 02:17:17;;;;;;;1.90;1.70;;;15.90;99.90;;;;;;4996977;28;20236;-33
2023/09/01 02:19:43;;;;;;;3.65;2.17;;;15.80;99.90;;;;;;4996838;28;20183;-33
2023/09/01 02:22:09;;;;;;;3.07;1.90;;;15.80;99.90;;;;;;4996672;28;20272;-32
2023/09/01 02:24:35;;;;;;;3.20;1.97;;;15.80;99.90;;;;;;4996949;28;20183;-35
2023/09/01 02:27:00;;;;;;;4.03;2.03;;;15.80;99.90;;;;;;4996803;28;20175;-33
2023/09/01 02:29:26;;;;;;;3.60;1.80;;;15.80;99.90;;;;;;4987679;28;20179;-33
2023/09/01 02:31:53;;;;;;;4.13;1.93;;;15.80;99.90;;;;;;4977358;28;20214;-33
2023/09/01 02:34:19;;;;;;;4.07;1.73;;;15.80;99.90;;;;;;4993694;28;20179;-34
2023/09/01 02:36:45;;;;;;;4.90;1.75;;;15.80;99.90;;;;;;4978133;28;20195;-33
2023/09/01 02:39:11;;;;;;;3.83;2.33;;;15.80;99.90;;;;;;4993470;28;20226;-33
2023/09/01 02:41:37;;;;;;;2.55;1.95;;;15.80;99.90;;;;;;4994028;28;20246;-34
2023/09/01 02:44:04;;;;;;;3.83;2.22;;;15.70;99.90;;;;;;4985135;28;20194;-34
2023/09/01 02:46:30;;;;;;;4.50;1.90;;;15.70;99.90;;;;;;4996591;28;20261;-33
2023/09/01 02:48:56;;;;;;;3.03;1.80;;;15.80;99.90;;;;;;4983385;28;20267;-33
2023/09/01 02:51:22;;;;;;;4.70;2.00;;;15.80;99.90;;;;;;4990607;28;20721;-33
2023/09/01 02:53:48;;;;;;;3.85;1.90;;;15.70;99.90;;;;;;4986042;28;20202;-33
2023/09/01 02:56:14;;;;;;;3.70;2.10;;;15.70;99.90;;;;;;4980313;28;20179;-34
2023/09/01 02:58:40;;;;;;;2.77;1.93;;;15.70;99.90;;;;;;4993056;28;20191;-33
2023/09/01 03:01:07;;;;;;;2.20;1.70;;;15.70;99.90;;;;;;4977029;28;20206;-32
2023/09/01 03:03:35;;;;;;;3.80;1.93;;;15.80;99.90;;;;;;4979117;28;20203;-32
2023/09/01 03:06:05;;;;;;;3.50;1.90;;;15.80;99.90;;;;;;4996309;28;20190;-34
2023/09/01 03:08:32;;;;;;;4.95;2.00;;;15.80;99.90;;;;;;4980518;28;20171;-34
2023/09/01 03:10:57;;;;;;;2.58;1.75;;;15.80;99.90;;;;;;4980658;28;20211;-34
2023/09/01 03:13:23;;;;;;;7.07;2.17;;;15.80;99.90;;;;;;4979889;28;20269;-35
2023/09/01 03:15:52;;;;;;;3.22;1.83;;;15.80;99.90;;;;;;4979258;28;20194;-34
2023/09/01 03:18:18;;;;;;;2.53;1.70;;;15.80;99.90;;;;;;4980713;28;20210;-34
2023/09/01 03:20:44;;;;;;;2.50;1.67;;;15.90;99.90;;;;;;4997631;28;20280;-32
2023/09/01 03:23:10;;;;;;;4.68;1.73;;;15.90;99.90;;;;;;4986976;28;20296;-33
2023/09/01 03:25:36;;;;;;;3.45;1.80;;;16.00;99.90;;;;;;5000357;28;20285;-34
2023/09/01 03:28:02;;;;;;;4.07;1.63;;;16.10;99.90;;;;;;4999838;28;20318;-34
2023/09/01 03:30:28;;;;;;;2.22;1.58;;;16.10;99.90;;;;;;5000302;28;20174;-34
2023/09/01 03:32:54;;;;;;;2.07;1.70;;;16.20;99.90;;;;;;5000097;28;20203;-33
2023/09/01 03:35:20;;;;;;;2.30;1.60;;;16.20;99.90;;;;;;4999848;28;20301;-33
2023/09/01 03:37:46;;;;;;;2.45;1.48;;;16.20;99.90;;;;;;4999523;28;20187;-33
2023/09/01 03:40:12;;;;;;;2.30;1.50;;;16.20;99.90;;;;;;4999746;28;20178;-34
2023/09/01 03:42:39;;;;;;;3.35;1.77;;;16.20;99.90;;;;;;4996947;28;20216;-33
2023/09/01 03:45:06;;;;;;;3.88;1.77;;;16.20;99.90;;;;;;4980672;28;20183;-33
2023/09/01 03:47:32;;;;;;;2.03;1.42;;;16.20;99.90;;;;;;4994828;28;20179;-33
2023/09/01 03:49:58;;;;;;;2.53;1.73;;;16.10;99.90;;;;;;4979514;28;20207;-32
2023/09/01 03:52:24;;;;;;;3.35;1.83;;;16.10;99.90;;;;;;4980138;28;20238;-32
2023/09/01 03:54:50;;;;;;;2.05;1.60;;;16.00;99.90;;;;;;4979933;28;20190;-33
2023/09/01 03:57:17;;;;;;;4.90;1.80;;;16.00;99.90;;;;;;4979879;28;20186;-33
2023/09/01 03:59:43;;;;;;;2.33;1.67;;;15.90;99.90;;;;;;4982466;28;20190;-33
2023/09/01 04:02:09;;;;;;;2.38;1.60;;;15.90;99.90;;;;;;4999261;28;20217;-34
2023/09/01 04:04:35;;;;;;;2.53;1.50;;;15.80;99.90;;;;;;4999559;28;20187;-34
2023/09/01 04:07:01;;;;;;;2.95;1.52;;;15.80;99.90;;;;;;4999097;28;20186;-34
2023/09/01 04:09:27;;;;;;;3.40;1.55;;;15.80;99.90;;;;;;4999335;28;20175;-32
2023/09/01 04:11:54;;;;;;;2.08;1.52;;;15.80;99.90;;;;;;4999272;28;20214;-33
2023/09/01 04:14:20;;;;;;;2.35;1.10;;;15.80;99.90;;;;;;4998594;28;20266;-33
2023/09/01 04:16:46;;;;;;;1.85;1.38;;;15.80;99.90;;;;;;4998760;28;20241;-32
2023/09/01 04:19:12;;;;;;;2.05;1.10;;;15.80;99.90;;;;;;4999364;28;20261;-32
2023/09/01 04:24:29;;;;;;;2.25;1.40;;;15.80;99.90;;;;;;4980536;28;20245;-41
2023/09/01 04:26:55;;;;;;;3.80;1.20;;;15.90;99.90;;;;;;4955932;28;20231;-41
2023/09/01 04:29:21;;;;;;;1.30;1.20;;;15.90;99.90;;;;;;4963678;28;20181;-41
2023/09/01 04:31:50;;;;;;;3.65;1.40;;;15.90;99.90;;;;;;4992339;28;20188;-41
2023/09/01 04:34:18;;;;;;;3.10;1.50;;;16.00;99.90;;;;;;4987457;28;20176;-41
2023/09/01 04:36:44;;;;;;;1.40;1.02;;;16.00;99.90;;;;;;4975123;28;20230;-41
2023/09/01 04:39:09;;;;;;;1.63;1.30;;;16.10;99.90;;;;;;4971939;28;20176;-42
2023/09/01 04:41:35;;;;;;;1.35;1.25;;;16.00;99.90;;;;;;4983084;28;20222;-41
2023/09/01 04:44:01;;;;;;;1.63;1.20;;;16.00;99.90;;;;;;4975310;28;20200;-41
2023/09/01 04:46:27;;;;;;;1.77;1.25;;;16.00;99.90;;;;;;4991359;28;20172;-41
2023/09/01 04:48:53;;;;;;;1.48;1.20;;;16.00;99.90;;;;;;4955244;28;20189;-42
2023/09/01 04:51:19;;;;;;;3.22;1.35;;;16.00;99.90;;;;;;4979362;28;20263;-42
2023/09/01 04:53:44;;;;;;;1.65;1.25;;;16.00;99.90;;;;;;4961015;28;20254;-41
2023/09/01 04:56:10;;;;;;;1.50;1.20;;;16.00;99.90;;;;;;4975034;28;20242;-41
2023/09/01 04:58:36;;;;;;;3.45;1.48;;;16.00;99.90;;;;;;4958652;28;20176;-42
2023/09/01 05:01:03;;;;;;;2.20;1.30;;;16.00;99.90;;;;;;4955440;28;20219;-42
2023/09/01 05:03:29;;;;;;;1.40;1.25;;;16.00;99.90;;;;;;4972189;28;20204;-41
2023/09/01 05:05:57;;;;;;;1.15;1.05;;;16.00;99.90;;;;;;4954098;28;20177;-41
2023/09/01 05:08:22;;;;;;;1.63;1.40;;;16.10;99.90;;;;;;4979283;28;20185;-41
2023/09/01 05:10:50;;;;;;;2.25;1.20;;;16.10;99.90;;;;;;4982904;28;20184;-41
2023/09/01 05:13:16;;;;;;;2.37;1.10;;;16.20;99.90;;;;;;4947385;28;20283;-41
2023/09/01 05:15:42;;;;;;;1.23;1.13;;;16.20;99.90;;;;;;4988925;28;20235;-41
2023/09/01 05:18:07;;;;;;;1.38;1.02;;;16.30;99.90;;;;;;4955399;28;20181;-41
2023/09/01 05:20:34;;;;;;;1.67;1.20;;;16.40;99.90;;;;;;4972606;28;20194;-41
2023/09/01 05:22:59;;;;;;;1.80;1.02;;;16.50;99.90;;;;;;4915426;28;1166372;-41
2023/09/01 05:25:26;;;;;;;1.10;1.00;;;16.50;99.90;;;;;;4980733;28;20237;-41
2023/09/01 05:27:52;;;;;;;1.50;1.25;;;16.50;99.90;;;;;;4993982;28;20206;-42
2023/09/01 05:30:18;;;;;;;1.50;1.10;;;16.50;99.90;;;;;;4968615;28;20184;-41
2023/09/01 05:32:45;;;;;;;1.52;1.10;;;16.60;99.90;;;;;;4965342;28;20200;-41
2023/09/01 05:35:11;;;;;;;1.30;1.00;;;16.60;99.90;;;;;;4958929;28;20176;-42
2023/09/01 05:37:36;;;;;;;2.15;1.00;;;16.50;99.90;;;;;;4959270;28;20183;-41
2023/09/01 05:40:03;;;;;;;1.10;1.00;;;16.60;99.90;;;;;;4967020;28;20187;-42
2023/09/01 05:42:29;;;;;;;1.77;1.25;;;16.60;99.90;;;;;;4955677;28;20295;-41
2023/09/01 05:44:55;;;;;;;1.83;1.35;;;16.60;99.90;;;;;;4990446;28;20176;-42
2023/09/01 05:47:21;;;;;;;1.15;1.02;;;16.60;99.90;;;;;;4951785;28;20184;-41
2023/09/01 05:49:48;;;;;;;1.42;1.10;;;16.60;99.90;;;;;;4974411;28;20203;-42
2023/09/01 05:52:14;;;;;;;1.25;1.05;;;16.70;99.90;;;;;;4970213;28;20290;-42
2023/09/01 05:54:40;;;;;;;1.67;1.27;;;16.70;99.90;;;;;;4989371;28;20196;-42
2023/09/01 05:57:06;;;;;;;1.98;1.02;;;16.60;99.90;;;;;;4987843;28;20184;-42
2023/09/01 05:59:32;;;;;;;2.03;1.10;;;16.70;99.90;;;;;;4993655;28;20191;-42
2023/09/01 06:01:58;;;;;;;2.05;1.30;;;16.60;99.90;;;;;;4993734;28;20253;-42
2023/09/01 06:04:23;;;;;;;2.00;1.25;;;16.70;99.90;;;;;;4986261;28;20267;-42
2023/09/01 06:06:50;;;;;;;4.43;0.90;;;16.70;99.90;;;;;;4993432;28;20274;-41
2023/09/01 06:09:16;;;;;;;2.00;1.40;;;16.70;99.90;;;;;;4977826;28;20672;-41
2023/09/01 06:11:42;;;;;;;1.55;1.02;;;16.60;99.90;;;;;;4977210;28;20218;-42
2023/09/01 06:14:08;;;;;;;1.48;1.00;;;16.60;99.90;;;;;;4993479;28;20207;-42
2023/09/01 06:16:34;;;;;;;1.30;1.05;;;16.60;99.90;;;;;;4974241;28;20653;-42
2023/09/01 06:19:00;;;;;;;2.05;1.25;;;16.60;99.90;;;;;;4986563;28;20187;-42
2023/09/01 06:21:26;;;;;;;2.05;1.10;;;16.60;99.90;;;;;;4993797;28;20207;-42
2023/09/01 06:23:52;;;;;;;1.73;1.30;;;16.60;99.90;;;;;;4988355;28;20207;-42
2023/09/01 06:26:18;;;;;;;1.63;1.10;;;16.70;99.90;;;;;;4963051;28;20208;-42
2023/09/01 06:28:45;;;;;;;2.35;1.25;;;16.60;99.90;;;;;;4975054;28;20187;-42
2023/09/01 06:31:13;;;;;;;1.98;0.98;;;16.70;99.90;;;;;;4988018;28;20184;-42
2023/09/01 06:33:43;;;;;;;1.35;1.10;;;16.70;99.90;;;;;;4982106;28;20211;-42
2023/09/01 06:36:13;;;;;;;1.75;1.17;;;16.80;99.90;;;;;;4974173;28;20207;-42
2023/09/01 06:38:42;;;;;;;1.15;1.05;;;16.80;99.90;;;;;;4960095;28;20242;-42
2023/09/01 06:41:08;;;;;;;2.92;1.20;;;16.80;99.90;;;;;;4991483;28;20209;-42
2023/09/01 06:43:34;;;;;;;1.80;1.13;;;16.90;99.90;;;;;;4997136;28;20234;-42
2023/09/01 06:46:01;;;;;;;2.20;1.10;;;16.90;99.90;;;;;;4981149;28;20213;-41
2023/09/01 06:48:26;;;;;;;2.53;1.60;;;16.90;99.90;;;;;;4997488;28;20190;-42
2023/09/01 06:50:52;;;;;;;1.45;1.10;;;17.00;99.90;;;;;;4993923;28;20195;-42
2023/09/01 06:53:18;;;;;;;1.63;1.50;;;17.00;99.90;;;;;;4994111;28;20242;-42
2023/09/01 06:55:47;;;;;;;3.78;1.40;;;17.00;99.90;;;;;;4994974;28;20187;-42
2023/09/01 06:58:13;;;;;;;1.92;1.25;;;17.00;99.90;;;;;;4997149;28;20191;-42
2023/09/01 07:00:39;;;;;;;1.70;1.30;;;17.10;99.90;;;;;;4997288;28;20190;-42
2023/09/01 07:03:05;;;;;;;2.47;1.15;;;17.20;99.90;;;;;;4997061;28;20294;-42
2023/09/01 07:05:31;;;;;;;2.28;1.40;;;17.20;99.90;;;;;;4993885;28;20187;-42
2023/09/01 07:07:57;;;;;;;3.10;1.50;;;17.30;99.90;;;;;;4977256;28;20203;-42
2023/09/01 07:10:22;;;;;;;3.33;1.20;;;17.30;99.90;;;;;;4962032;28;20175;-42
2023/09/01 07:12:48;;;;;;;2.38;1.20;;;17.30;99.90;;;;;;4961486;28;20291;-42
2023/09/01 07:15:14;;;;;;;1.70;1.25;;;17.40;99.90;;;;;;4977348;28;20195;-42
2023/09/01 07:17:40;;;;;;;2.65;1.20;;;17.40;99.90;;;;;;4961432;28;20270;-42
2023/09/01 07:20:06;;;;;;;1.60;1.15;;;17.50;99.90;;;;;;4990111;28;20176;-42
2023/09/01 07:22:32;;;;;;;1.65;1.00;;;17.50;99.90;;;;;;4995915;28;20430;-42
2023/09/01 07:24:59;;;;;;;2.08;1.10;;;17.50;99.90;;;;;;4988844;28;20179;-41
2023/09/01 07:27:24;;;;;;;1.60;1.00;;;17.60;99.90;;;;;;4996855;28;20225;-41
2023/09/01 07:29:50;;;;;;;2.78;1.10;;;17.70;99.90;;;;;;4996283;28;20184;-42
2023/09/01 07:32:16;;;;;;;3.63;1.30;;;17.80;99.90;;;;;;4996746;28;20221;-42
2023/09/01 07:34:42;;;;;;;2.25;1.20;;;17.80;99.90;;;;;;4996646;28;20179;-42
2023/09/01 07:37:08;;;;;;;1.50;1.40;;;18.00;99.90;;;;;;4996245;28;20183;-42
2023/09/01 07:39:35;;;;;;;2.22;1.30;;;18.00;99.90;;;;;;4996424;28;20274;-42
2023/09/01 07:42:04;;;;;;;1.20;1.10;;;18.10;99.90;;;;;;4996574;28;20218;-40
2023/09/01 07:44:30;;;;;;;1.45;1.10;;;18.10;99.90;;;;;;4996631;28;20171;-42
2023/09/01 07:46:56;;;;;;;3.22;1.10;;;18.20;99.90;;;;;;4980156;28;20179;-41
2023/09/01 07:49:22;;;;;;;1.17;0.93;;;18.20;99.90;;;;;;4978980;28;20195;-42
2023/09/01 07:51:49;;;;;;;1.17;1.02;;;18.20;99.90;;;;;;4979911;28;20187;-42
2023/09/01 07:54:15;;;;;;;1.38;1.00;;;18.30;99.90;;;;;;4996376;28;20180;-42
2023/09/01 07:56:41;;;;;;;1.00;0.85;;;18.30;99.90;;;;;;4979975;28;20191;-42
2023/09/01 07:59:07;;;;;;;1.13;0.98;;;18.40;99.90;;;;;;4996152;28;20285;-42
2023/09/01 08:01:33;;;;;;;2.03;1.20;;;18.60;99.90;;;;;;4996198;28;20209;-42
2023/09/01 08:03:59;;;;;;;2.88;1.40;;;18.60;99.90;;;;;;4996063;28;20187;-42
2023/09/01 08:06:31;;;;;;;1.98;1.20;;;18.70;99.90;;;;;;4995838;28;20179;-42
2023/09/01 08:08:57;;;;;;;2.63;1.40;;;18.80;99.90;;;;;;4995312;28;20218;-42
2023/09/01 08:11:23;;;;;;;2.17;1.23;;;18.90;99.90;;;;;;4980077;28;20270;-42
2023/09/01 08:13:49;;;;;;;1.20;1.10;;;19.00;99.90;;;;;;4995878;28;20226;-42
2023/09/01 08:16:18;;;;;;;1.67;1.00;;;19.20;99.90;;;;;;4995181;28;20187;-41
2023/09/01 08:18:44;;;;;;;2.45;1.00;;;19.20;99.90;;;;;;4987884;28;20186;-42
2023/09/01 08:21:10;;;;;;;3.65;1.10;;;19.30;99.90;;;;;;4995495;28;20257;-42
2023/09/01 08:23:35;;;;;;;1.75;1.13;;;19.40;99.90;;;;;;4992257;28;20226;-42
2023/09/01 08:26:05;;;;;;;1.60;1.20;;;19.30;99.90;;;;;;4987813;28;20183;-42
2023/09/01 08:28:31;;;;;;;1.85;1.10;;;19.30;99.90;;;;;;4994909;28;20207;-42
2023/09/01 08:31:05;;;;;;;1.17;1.00;;;19.20;99.90;;;;;;4995804;28;20183;-42
2023/09/01 08:33:31;;;;;;;2.15;1.17;;;19.20;99.90;;;;;;4995455;28;20278;-42
2023/09/01 08:36:00;;;;;;;2.53;1.50;;;19.30;99.90;;;;;;4995233;28;20183;-42
2023/09/01 08:38:26;;;;;;;3.45;1.40;;;19.30;99.90;;;;;;4978932;28;20285;-42
2023/09/01 08:40:59;;;;;;;1.52;1.40;;;19.40;99.90;;;;;;4995089;28;20187;-42
2023/09/01 08:43:27;;;;;;;3.80;1.20;;;19.50;99.90;;;;;;4995264;28;20241;-42
2023/09/01 08:45:54;;;;;;;3.00;1.42;;;19.60;99.90;;;;;;4994985;28;20191;-41
2023/09/01 08:48:20;;;;;;;1.95;1.10;;;19.60;99.90;;;;;;4995071;28;20179;-42
2023/09/01 08:50:46;;;;;;;1.40;1.30;;;19.70;99.90;;;;;;4970873;28;20237;-42
2023/09/01 08:53:12;;;;;;;2.03;1.35;;;19.70;99.90;;;;;;4995326;28;20554;-40
2023/09/01 08:55:38;;;;;;;1.10;1.00;;;19.80;99.90;;;;;;4994852;28;20226;-42
2023/09/01 08:58:04;;;;;;;1.85;1.20;;;19.90;99.90;;;;;;4990929;28;20211;-41
2023/09/01 09:00:30;;;;;;;1.50;1.15;;;20.00;99.90;;;;;;4990616;28;20181;-42
2023/09/01 09:02:56;;;;;;;2.10;1.30;;;20.20;99.90;;;;;;4994653;28;20218;-42
2023/09/01 09:05:22;;;;;;;2.13;1.30;;;20.30;99.90;;;;;;4994805;28;20206;-42
2023/09/01 09:07:59;;;;;;;2.67;1.38;;;20.50;99.90;;;;;;4994704;28;20175;-42
2023/09/01 09:10:36;;;;;;;1.80;1.10;;;20.50;99.90;;;;;;4995128;28;20175;-42
2023/09/01 09:13:04;;;;;;;2.28;1.30;;;20.60;99.90;;;;;;4978974;28;20203;-42
2023/09/01 09:15:31;;;;;;;1.77;1.17;;;20.60;99.90;;;;;;4995134;28;20242;-42
2023/09/01 09:17:57;;;;;;;1.67;1.27;;;20.60;99.90;;;;;;4991088;28;20287;-42
2023/09/01 09:20:36;;;;;;;1.70;0.90;;;20.80;99.90;;;;;;4989607;28;20266;-42
2023/09/01 09:23:02;;;;;;;2.25;1.20;;;20.80;99.90;;;;;;4990972;28;20235;-42
2023/09/01 09:25:31;;;;;;;1.83;1.20;;;20.80;99.90;;;;;;4958931;28;20238;-42
2023/09/01 09:28:12;;;;;;;1.33;1.23;;;20.80;99.90;;;;;;4958917;28;20203;-42
2023/09/01 09:30:51;;;;;;;1.30;1.08;;;20.80;99.90;;;;;;4991356;28;20194;-42
2023/09/01 09:33:27;;;;;;;1.65;1.30;;;20.80;99.90;;;;;;4994324;28;20195;-42
2023/09/01 09:35:53;;;;;;;2.80;1.27;;;20.90;99.90;;;;;;4994394;28;20960;-42
2023/09/01 09:38:19;;;;;;;2.22;1.38;;;20.90;99.90;;;;;;4994114;28;20229;-41
2023/09/01 09:41:01;;;;;;;1.85;1.40;;;21.00;99.90;;;;;;4994126;28;20190;-42
2023/09/01 09:43:27;;;;;;;1.38;1.20;;;21.10;99.90;;;;;;4986208;28;20210;-42
2023/09/01 09:45:54;;;;;;;2.10;1.33;;;21.30;99.90;;;;;;4993225;28;20190;-42
2023/09/01 09:48:20;;;;;;;2.00;1.30;;;21.40;99.90;;;;;;4993960;28;20266;-42
2023/09/01 09:50:51;;;;;;;2.58;1.50;;;21.40;99.90;;;;;;4994210;28;20206;-42
2023/09/01 09:53:22;;;;;;;1.95;1.15;;;21.20;99.90;;;;;;4994103;28;20211;-42
2023/09/01 09:55:50;;;;;;;1.73;1.10;;;21.20;99.90;;;;;;4993382;28;20199;-42
2023/09/01 09:58:39;;;;;;;1.98;1.25;;;21.20;99.90;;;;;;4988741;28;20189;-42
2023/09/01 10:01:15;;;;;;;2.10;1.13;;;21.10;99.90;;;;;;4985824;28;20183;-42
2023/09/01 10:03:42;;;;;;;2.92;1.00;;;21.10;99.90;;;;;;5010241;28;20214;-42
2023/09/01 10:06:10;;;;;;;1.73;1.25;;;21.20;99.90;;;;;;4994099;28;20183;-42
2023/09/01 10:08:37;;;;;;;1.90;1.30;;;21.30;99.90;;;;;;4993967;28;20179;-42
2023/09/01 10:11:04;;;;;;;1.30;1.20;;;21.40;99.90;;;;;;4993266;28;20199;-41
2023/09/01 10:13:31;;;;;;;1.33;1.17;;;21.50;99.90;;;;;;4993328;28;20218;-42
2023/09/01 10:15:57;;;;;;;2.70;1.23;;;21.60;99.90;;;;;;4983514;28;20294;-39
2023/09/01 10:18:24;;;;;;;1.55;1.10;;;21.70;99.90;;;;;;4988010;28;20190;-41
2023/09/01 10:20:50;;;;;;;1.75;1.20;;;21.70;99.90;;;;;;4990755;28;20250;-43
2023/09/01 10:23:16;;;;;;;1.73;1.25;;;21.70;99.90;;;;;;5010818;23;20644;-29
2023/09/01 10:26:30;;;;;;;1.27;1.13;;;21.80;99.90;;;;;;4991835;28;20711;-29
2023/09/01 10:29:04;;;;;;;1.55;1.30;;;21.80;99.90;;;;;;4983480;28;20282;-29
2023/09/01 10:31:33;;;;;;;1.27;1.17;;;21.90;99.90;;;;;;4989721;28;20234;-29
2023/09/01 10:34:05;;;;;;;2.05;1.17;;;21.90;99.90;;;;;;5012032;28;20210;-31
2023/09/01 10:36:31;;;;;;;1.52;1.30;;;21.80;99.90;;;;;;4996801;28;20202;-29
2023/09/01 10:39:19;;;;;;;2.55;1.10;;;21.80;99.90;;;;;;5030681;28;20261;-29
2023/09/01 10:41:49;;;;;;;2.67;1.30;;;21.80;99.90;;;;;;5013110;28;20246;-29
2023/09/01 10:44:15;;;;;;;1.83;0.98;;;21.90;99.90;;;;;;5012933;28;20703;-29
2023/09/01 10:46:41;;;;;;;1.48;1.10;;;21.90;99.90;;;;;;4996638;28;20190;-30
2023/09/01 10:49:09;;;;;;;2.50;1.02;;;21.80;99.90;;;;;;4996648;28;20174;-29
2023/09/01 10:51:43;;;;;;;1.35;1.00;;;21.80;99.90;;;;;;4996646;28;20197;-29
2023/09/01 10:54:15;;;;;;;1.35;0.90;;;21.80;99.90;;;;;;5013007;28;20202;-29
2023/09/01 10:56:58;;;;;;;1.55;1.15;;;21.90;99.90;;;;;;4995756;28;20266;-29
2023/09/01 10:59:36;;;;;;;2.17;1.00;;;22.10;99.90;;;;;;4996958;28;20221;-29
2023/09/01 11:02:21;;;;;;;0.82;0.82;;;22.20;99.90;;;;;;5012948;28;20206;-30
2023/09/01 11:04:48;;;;;;;1.13;1.00;;;22.50;99.90;;;;;;5012777;28;20186;-29
2023/09/01 11:07:14;;;;;;;1.48;1.00;;;22.70;99.90;;;;;;5030307;28;20185;-29
2023/09/01 11:09:42;;;;;;;0.95;0.80;;;23.00;99.90;;;;;;4996243;28;20193;-29
2023/09/01 11:12:10;;;;;;;1.30;0.85;;;23.10;99.90;;;;;;4996477;28;20679;-30
2023/09/01 11:14:37;;;;;;;1.00;0.90;;;23.20;99.90;;;;;;4995675;28;20186;-29
2023/09/01 11:17:03;;;;;;;1.88;1.00;;;23.20;99.90;;;;;;4996348;28;20186;-29
2023/09/01 11:19:33;;;;;;;1.08;0.90;;;23.40;99.90;;;;;;5012739;28;20182;-29
2023/09/01 11:21:59;;;;;;;1.13;0.85;;;23.50;99.90;;;;;;4996262;28;20206;-29
2023/09/01 11:24:25;;;;;;;1.55;1.00;;;23.70;99.90;;;;;;5010678;28;20230;-29
2023/09/01 11:26:51;;;;;;;1.00;0.90;;;23.90;99.90;;;;;;4994241;28;20222;-29
2023/09/01 11:29:21;;;;;;;1.30;1.08;;;24.10;99.90;;;;;;5029546;28;20190;-29
2023/09/01 11:31:47;;;;;;;1.33;1.00;;;24.10;99.90;;;;;;5013138;28;20641;-29
2023/09/01 11:34:14;;;;;;;1.25;1.00;;;24.10;99.90;;;;;;5029256;28;20199;-29
2023/09/01 11:36:47;;;;;;;1.50;1.00;;;24.10;99.90;;;;;;4999766;28;20179;-29
2023/09/01 11:39:13;;;;;;;0.95;0.80;;;24.30;99.90;;;;;;4996081;28;20195;-29
2023/09/01 11:41:40;;;;;;;1.15;1.05;;;24.30;99.90;;;;;;4999444;28;20213;-29
2023/09/01 11:44:07;;;;;;;1.55;1.00;;;24.50;99.90;;;;;;4999390;28;20198;-29
2023/09/01 11:46:35;;;;;;;0.80;0.80;;;24.30;99.90;;;;;;4999790;28;20185;-29
2023/09/01 11:49:03;;;;;;;1.67;1.10;;;24.40;99.90;;;;;;5015703;28;20183;-29
2023/09/01 11:51:40;;;;;;;1.25;0.88;;;24.50;99.90;;;;;;5015332;28;20237;-29
2023/09/01 11:54:07;;;;;;;1.60;1.10;;;24.60;99.90;;;;;;4996480;28;20236;-30
2023/09/01 11:56:33;;;;;;;1.00;0.90;;;24.70;99.90;;;;;;4999348;28;20182;-29
2023/09/01 11:59:00;;;;;;;1.35;0.90;;;24.80;99.90;;;;;;4995963;28;20191;-29
2023/09/01 12:01:35;;;;;;;2.35;1.05;;;24.60;99.90;;;;;;5013868;28;20233;-29
2023/09/01 12:04:09;;;;;;;1.88;1.00;;;24.60;99.90;;;;;;4994629;28;20211;-29
2023/09/01 12:06:46;;;;;;;1.27;1.00;;;24.40;99.90;;;;;;4995395;28;20270;-30
2023/09/01 12:09:18;;;;;;;1.17;0.90;;;24.40;99.90;;;;;;4999337;28;20194;-29
2023/09/01 12:11:55;;;;;;;1.35;0.82;;;24.50;99.90;;;;;;4999157;28;20187;-30
2023/09/01 12:14:38;;;;;;;1.02;0.70;;;24.50;99.90;;;;;;5012230;28;20202;-30
2023/09/01 12:17:18;;;;;;;0.85;0.82;;;24.70;99.90;;;;;;4995335;28;20226;-29
2023/09/01 12:19:46;;;;;;;1.40;1.00;;;24.70;99.90;;;;;;4992622;28;20192;-30
2023/09/01 12:22:13;;;;;;;1.10;0.90;;;24.60;99.90;;;;;;5003459;28;20226;-29
2023/09/01 12:24:39;;;;;;;1.10;1.00;;;24.60;99.90;;;;;;4999047;28;20221;-31
2023/09/01 12:27:05;;;;;;;3.00;1.10;;;24.80;99.90;;;;;;4998889;28;20190;-30
2023/09/01 12:29:31;;;;;;;1.75;1.00;;;25.10;99.90;;;;;;5014427;28;20189;-30
2023/09/01 12:31:57;;;;;;;1.25;0.98;;;25.00;99.90;;;;;;4997840;28;20190;-30
2023/09/01 12:34:23;;;;;;;0.98;0.88;;;24.70;99.90;;;;;;5032002;28;20198;-30
2023/09/01 12:36:49;;;;;;;1.10;1.00;;;24.70;99.90;;;;;;4997773;28;20293;-30
2023/09/01 12:39:15;;;;;;;1.35;1.20;;;24.70;99.90;;;;;;4998746;28;20232;-30
2023/09/01 12:41:41;;;;;;;2.08;1.17;;;24.70;99.90;;;;;;4998600;28;20242;-29
2023/09/01 12:44:06;;;;;;;1.77;1.00;;;24.70;99.90;;;;;;4998698;28;20199;-30
2023/09/01 12:46:32;;;;;;;1.05;0.90;;;24.70;99.90;;;;;;4998539;28;20719;-30
2023/09/01 12:48:58;;;;;;;1.10;0.93;;;24.80;99.90;;;;;;4998406;28;20252;-30
2023/09/01 12:51:23;;;;;;;1.05;0.90;;;25.10;99.90;;;;;;5031046;28;20193;-30
2023/09/01 12:53:50;;;;;;;1.25;1.15;;;25.10;99.90;;;;;;4998297;28;20217;-30